Time;durP1;ratioP1;P1;durP2;ratioP2;P2;SDS_P1;SDS_P2;PMS_P1;PMS_P2;Temp;Humidity;BMP_temperature;BMP_pressure;BME280_temperature;BME280_humidity;BME280_pressure;Samples;Min_cycle;Max_cycle;Signal;HPM_P1;HPM_P2
2023/11/24 00:01:08;;;;;;;20.07;7.60;;;13.10;99.90;;;;;;7290172;19;20202;-81
2023/11/24 00:03:33;;;;;;;22.47;8.17;;;13.20;99.90;;;;;;7307256;19;20188;-81
2023/11/24 00:06:00;;;;;;;18.43;7.63;;;13.10;99.90;;;;;;7303193;19;20181;-82
2023/11/24 00:08:26;;;;;;;18.50;8.03;;;13.10;99.90;;;;;;7288175;19;20192;-82
2023/11/24 00:10:51;;;;;;;22.60;8.60;;;13.00;99.90;;;;;;7289895;19;20185;-82
2023/11/24 00:13:18;;;;;;;17.73;5.23;;;12.90;99.90;;;;;;7287647;19;20223;-81
2023/11/24 00:15:45;;;;;;;22.97;5.80;;;12.80;99.90;;;;;;7289585;19;20200;-81
2023/11/24 00:18:11;;;;;;;18.40;5.67;;;12.60;99.90;;;;;;7288092;19;20608;-82
2023/11/24 00:20:37;;;;;;;17.87;6.37;;;12.60;99.90;;;;;;7289058;19;20202;-81
2023/11/24 00:23:03;;;;;;;15.60;5.70;;;12.60;99.90;;;;;;7311192;19;20185;-81
2023/11/24 00:25:31;;;;;;;17.57;6.27;;;12.60;99.90;;;;;;7288686;19;20185;-81
2023/11/24 00:27:57;;;;;;;18.53;5.97;;;12.70;99.90;;;;;;7288248;19;20188;-82
2023/11/24 00:30:23;;;;;;;19.00;5.20;;;12.70;99.90;;;;;;7288390;19;20194;-82
2023/11/24 00:32:49;;;;;;;13.77;5.27;;;12.80;99.90;;;;;;7292577;19;20199;-81
2023/11/24 00:35:15;;;;;;;17.20;5.87;;;12.90;99.90;;;;;;7291484;19;20188;-83
2023/11/24 00:37:41;;;;;;;14.93;4.80;;;12.80;99.90;;;;;;7286904;19;20192;-82
2023/11/24 00:40:13;;;;;;;20.50;4.10;;;12.80;99.90;;;;;;7289074;19;20194;-82
2023/11/24 00:42:40;;;;;;;23.17;4.17;;;12.60;99.90;;;;;;7288848;19;20189;-82
2023/11/24 00:45:09;;;;;;;23.30;3.97;;;12.50;99.90;;;;;;7288626;19;20209;-81
2023/11/24 00:47:35;;;;;;;26.53;3.40;;;12.50;99.90;;;;;;7289021;19;20621;-81
2023/11/24 00:50:01;;;;;;;21.13;3.80;;;12.40;99.90;;;;;;7310884;19;20206;-81
2023/11/24 00:52:26;;;;;;;25.87;3.73;;;12.20;99.90;;;;;;7288008;19;20205;-82
2023/11/24 00:54:53;;;;;;;25.57;3.40;;;12.10;99.90;;;;;;7288590;19;20185;-82
2023/11/24 00:57:18;;;;;;;23.63;3.60;;;12.10;99.90;;;;;;7287645;19;20187;-82
2023/11/24 00:59:44;;;;;;;30.30;3.80;;;12.10;99.90;;;;;;7288187;19;20202;-81
2023/11/24 01:02:11;;;;;;;26.27;3.53;;;11.90;99.90;;;;;;7287379;19;20195;-81
2023/11/24 01:04:36;;;;;;;26.33;4.17;;;12.00;99.90;;;;;;7289256;19;20533;-81
2023/11/24 01:07:03;;;;;;;27.37;3.73;;;12.10;99.90;;;;;;7309719;19;20189;-82
2023/11/24 01:09:29;;;;;;;26.43;4.10;;;12.10;99.90;;;;;;7286005;19;20187;-82
2023/11/24 01:11:55;;;;;;;24.07;3.87;;;12.20;99.90;;;;;;7286520;19;20280;-82
2023/11/24 01:14:21;;;;;;;25.63;3.83;;;12.30;99.90;;;;;;7286691;19;20197;-81
2023/11/24 01:16:46;;;;;;;23.57;3.83;;;12.30;99.90;;;;;;7286303;19;20181;-81
2023/11/24 01:19:14;;;;;;;24.60;3.17;;;12.20;99.90;;;;;;7284421;19;20192;-81
2023/11/24 01:21:40;;;;;;;27.33;4.00;;;12.30;99.90;;;;;;7286343;19;20184;-81
2023/11/24 01:24:06;;;;;;;30.50;4.27;;;12.30;99.90;;;;;;7287688;19;20254;-81
2023/11/24 01:26:32;;;;;;;35.27;4.60;;;12.30;99.90;;;;;;7308896;19;20189;-82
2023/11/24 01:29:02;;;;;;;35.17;4.50;;;12.40;99.90;;;;;;7286271;19;20262;-82
2023/11/24 01:31:30;;;;;;;25.53;3.63;;;12.40;99.90;;;;;;7286736;19;20188;-82
2023/11/24 01:33:56;;;;;;;24.53;3.73;;;12.40;99.90;;;;;;7285236;19;20722;-82
2023/11/24 01:36:22;;;;;;;25.53;3.73;;;12.40;99.90;;;;;;7285912;19;20195;-81
2023/11/24 01:38:50;;;;;;;29.93;3.63;;;12.40;99.90;;;;;;7286064;19;20307;-81
2023/11/24 01:41:17;;;;;;;29.43;4.10;;;12.40;99.90;;;;;;7282604;19;20196;-82
2023/11/24 01:44:00;;;;;;;30.77;4.23;;;12.30;99.90;;;;;;7287767;19;20673;-82
2023/11/24 01:46:25;;;;;;;25.83;3.90;;;12.20;99.90;;;;;;7285493;19;20193;-82
2023/11/24 01:48:52;;;;;;;27.27;4.07;;;12.20;99.90;;;;;;7285588;19;20230;-82
2023/11/24 01:51:17;;;;;;;20.37;3.53;;;12.10;99.90;;;;;;7287953;19;20516;-82
2023/11/24 01:53:43;;;;;;;20.70;3.47;;;12.00;99.90;;;;;;7286444;19;20185;-82
2023/11/24 01:56:10;;;;;;;25.53;3.47;;;11.90;99.90;;;;;;7286167;19;20679;-82
2023/11/24 01:58:37;;;;;;;25.83;3.70;;;11.90;99.90;;;;;;7286060;19;20292;-81
2023/11/24 02:01:04;;;;;;;24.13;3.40;;;11.90;99.90;;;;;;7311742;19;20216;-81
2023/11/24 02:03:30;;;;;;;26.00;4.17;;;11.90;99.90;;;;;;7286357;19;20187;-82
2023/11/24 02:05:56;;;;;;;26.80;4.20;;;11.90;99.90;;;;;;7286040;19;20227;-82
2023/11/24 02:08:23;;;;;;;25.40;3.60;;;11.90;99.90;;;;;;7285494;19;20221;-81
2023/11/24 02:10:49;;;;;;;21.17;2.70;;;11.80;99.90;;;;;;7284849;19;20259;-81
2023/11/24 02:13:14;;;;;;;25.30;3.77;;;11.80;99.90;;;;;;7284035;19;20269;-81
2023/11/24 02:15:40;;;;;;;20.37;3.00;;;11.70;99.90;;;;;;7285838;19;20218;-81
2023/11/24 02:18:06;;;;;;;26.13;3.30;;;11.60;99.90;;;;;;7284898;19;20276;-81
2023/11/24 02:20:33;;;;;;;28.93;4.60;;;11.50;99.90;;;;;;7306746;19;20185;-81
2023/11/24 02:23:00;;;;;;;22.03;3.13;;;11.50;99.90;;;;;;7287124;19;20181;-81
2023/11/24 02:25:26;;;;;;;18.17;3.60;;;11.50;99.90;;;;;;7286814;19;20248;-80
2023/11/24 02:27:51;;;;;;;23.47;3.20;;;11.60;99.90;;;;;;7283597;19;20211;-81
2023/11/24 02:30:17;;;;;;;28.70;3.50;;;11.60;99.90;;;;;;7285999;19;20266;-81
2023/11/24 02:32:44;;;;;;;22.30;3.10;;;11.70;99.90;;;;;;7283700;19;20200;-81
2023/11/24 02:35:10;;;;;;;23.30;3.57;;;11.60;99.90;;;;;;7282808;19;20189;-81
2023/11/24 02:37:35;;;;;;;17.77;2.87;;;11.70;99.90;;;;;;7287163;19;20184;-80
2023/11/24 02:40:03;;;;;;;24.37;3.37;;;11.70;99.90;;;;;;7305803;19;20186;-80
2023/11/24 02:42:30;;;;;;;26.47;3.10;;;11.70;99.90;;;;;;7285965;19;20184;-81
2023/11/24 02:44:56;;;;;;;27.30;3.30;;;11.70;99.90;;;;;;7283824;19;20199;-81
2023/11/24 02:47:21;;;;;;;25.70;4.50;;;11.70;99.90;;;;;;7281432;19;20594;-81
2023/11/24 02:49:47;;;;;;;22.63;3.30;;;11.70;99.90;;;;;;7284945;19;20205;-81
2023/11/24 02:52:14;;;;;;;27.63;4.17;;;11.70;99.90;;;;;;7284219;19;20523;-81
2023/11/24 02:54:40;;;;;;;24.73;3.50;;;11.70;99.90;;;;;;7284710;19;20188;-81
2023/11/24 02:57:06;;;;;;;19.60;3.10;;;11.70;99.90;;;;;;7286330;19;20197;-81
2023/11/24 02:59:32;;;;;;;27.67;3.43;;;11.70;99.90;;;;;;7305273;19;20191;-81
2023/11/24 03:01:57;;;;;;;21.30;3.27;;;11.60;99.90;;;;;;7279044;19;20191;-81
2023/11/24 03:04:23;;;;;;;22.70;2.97;;;11.50;99.90;;;;;;7284480;19;20231;-81
2023/11/24 03:06:49;;;;;;;26.93;3.40;;;11.60;99.90;;;;;;7282759;19;20196;-81
2023/11/24 03:09:16;;;;;;;21.47;3.07;;;11.60;99.90;;;;;;7283012;19;20198;-80
2023/11/24 03:11:42;;;;;;;21.50;3.40;;;11.60;99.90;;;;;;7283913;19;20188;-81
2023/11/24 03:14:08;;;;;;;27.53;3.77;;;11.60;99.90;;;;;;7283323;19;20188;-81
2023/11/24 03:16:33;;;;;;;28.70;4.13;;;11.60;99.90;;;;;;7304661;19;20213;-81
2023/11/24 03:18:59;;;;;;;25.53;3.50;;;11.60;99.90;;;;;;7282938;19;20188;-81
2023/11/24 03:21:25;;;;;;;30.77;3.40;;;11.60;99.90;;;;;;7281763;19;20178;-82
2023/11/24 03:23:51;;;;;;;25.93;3.23;;;11.50;99.90;;;;;;7285277;19;20212;-82
2023/11/24 03:26:16;;;;;;;28.57;4.07;;;11.50;99.90;;;;;;7285586;19;20223;-81
2023/11/24 03:28:43;;;;;;;18.10;3.23;;;11.50;99.90;;;;;;7284312;19;20194;-81
2023/11/24 03:31:09;;;;;;;22.93;3.37;;;11.40;99.90;;;;;;7282439;19;20192;-81
2023/11/24 03:33:35;;;;;;;21.30;3.27;;;11.40;99.90;;;;;;7292896;19;20180;-81
2023/11/24 03:36:01;;;;;;;20.50;3.13;;;11.20;99.90;;;;;;7303377;19;20187;-82
2023/11/24 03:38:27;;;;;;;30.30;3.77;;;11.20;99.90;;;;;;7282921;19;20183;-80
2023/11/24 03:40:54;;;;;;;21.50;3.13;;;11.10;99.90;;;;;;7282756;19;20221;-81
2023/11/24 03:43:20;;;;;;;23.87;3.50;;;11.10;99.90;;;;;;7284902;19;20204;-80
2023/11/24 03:45:46;;;;;;;24.27;3.50;;;11.00;99.90;;;;;;7281420;19;20196;-81
2023/11/24 03:48:19;;;;;;;24.53;3.27;;;11.00;99.90;;;;;;7281551;19;20591;-81
2023/11/24 03:50:45;;;;;;;25.53;3.40;;;11.00;99.90;;;;;;7283722;19;20554;-81
2023/11/24 03:53:10;;;;;;;27.13;3.40;;;11.00;99.90;;;;;;7281331;19;20191;-81
2023/11/24 03:55:36;;;;;;;21.43;3.03;;;11.00;99.90;;;;;;7282302;19;20189;-81
2023/11/24 03:58:03;;;;;;;22.37;3.00;;;10.80;99.90;;;;;;7301558;19;20720;-81
2023/11/24 04:00:29;;;;;;;22.90;3.13;;;10.80;99.90;;;;;;7281202;19;20183;-81
2023/11/24 04:02:54;;;;;;;22.10;3.10;;;10.70;99.90;;;;;;7282219;19;20183;-81
2023/11/24 04:05:21;;;;;;;18.43;3.07;;;10.60;99.90;;;;;;7283017;19;20194;-81
2023/11/24 04:07:46;;;;;;;22.47;3.27;;;10.60;99.90;;;;;;7281289;19;20201;-81
2023/11/24 04:10:12;;;;;;;19.43;2.60;;;10.60;99.90;;;;;;7282159;19;20187;-81
2023/11/24 04:12:38;;;;;;;23.50;3.00;;;10.50;99.90;;;;;;7287823;19;20191;-81
2023/11/24 04:15:04;;;;;;;21.70;3.53;;;10.40;99.90;;;;;;7307961;19;20200;-81
2023/11/24 04:17:30;;;;;;;23.03;3.37;;;10.40;99.90;;;;;;7288937;19;20196;-81
2023/11/24 04:19:56;;;;;;;24.30;2.77;;;10.30;99.90;;;;;;7287464;19;20282;-81
2023/11/24 04:22:22;;;;;;;18.80;3.07;;;10.30;99.90;;;;;;7288452;19;20685;-81
2023/11/24 04:24:47;;;;;;;23.67;2.80;;;10.20;99.90;;;;;;7288430;19;20201;-81
2023/11/24 04:27:14;;;;;;;20.47;3.60;;;10.30;99.90;;;;;;7287074;19;20606;-82
2023/11/24 04:29:40;;;;;;;21.20;3.63;;;10.30;99.90;;;;;;7284591;19;20200;-81
2023/11/24 04:32:06;;;;;;;26.80;3.30;;;10.30;99.90;;;;;;7290137;19;20190;-80
2023/11/24 04:34:32;;;;;;;22.10;2.80;;;10.20;99.90;;;;;;7310172;19;20660;-81
2023/11/24 04:36:59;;;;;;;19.67;3.20;;;10.20;99.90;;;;;;7289218;19;20195;-81
2023/11/24 04:39:26;;;;;;;25.87;3.17;;;10.20;99.90;;;;;;7289718;19;20186;-81
2023/11/24 04:41:52;;;;;;;19.77;2.70;;;10.20;99.90;;;;;;7287877;19;20190;-81
2023/11/24 04:44:18;;;;;;;20.43;2.90;;;10.20;99.90;;;;;;7288357;19;20200;-82
2023/11/24 04:46:43;;;;;;;19.53;3.10;;;10.20;99.90;;;;;;7287534;19;20256;-81
2023/11/24 04:49:09;;;;;;;23.13;3.07;;;10.20;99.90;;;;;;7286840;19;20192;-81
2023/11/24 04:51:35;;;;;;;25.63;3.77;;;10.10;99.90;;;;;;7301920;19;21654;-81
2023/11/24 04:54:03;;;;;;;24.27;3.20;;;10.00;99.90;;;;;;7307040;19;20250;-80
2023/11/24 04:56:30;;;;;;;26.67;3.07;;;10.00;99.90;;;;;;7288599;19;20193;-81
2023/11/24 04:58:57;;;;;;;27.83;3.60;;;10.00;99.90;;;;;;7287176;19;20244;-81
2023/11/24 05:01:23;;;;;;;19.90;2.90;;;10.00;99.90;;;;;;7288147;19;20668;-81
2023/11/24 05:03:49;;;;;;;21.47;3.30;;;10.10;99.90;;;;;;7287949;19;20190;-81
2023/11/24 05:06:16;;;;;;;24.23;3.40;;;10.00;99.90;;;;;;7290222;19;20204;-82
2023/11/24 05:08:41;;;;;;;21.83;2.80;;;10.00;99.90;;;;;;7287104;19;20193;-81
2023/11/24 05:11:07;;;;;;;20.70;2.80;;;10.10;99.90;;;;;;7286928;19;20186;-80
2023/11/24 05:13:33;;;;;;;26.00;3.50;;;10.10;99.90;;;;;;7307712;19;20191;-81
2023/11/24 05:15:59;;;;;;;22.47;3.37;;;10.00;99.90;;;;;;7286424;19;20204;-81
2023/11/24 05:18:25;;;;;;;23.20;3.00;;;10.00;99.90;;;;;;7287452;19;20229;-81
2023/11/24 05:20:51;;;;;;;22.97;3.33;;;10.10;99.90;;;;;;7285507;19;20175;-81
2023/11/24 05:23:17;;;;;;;18.63;3.20;;;10.00;99.90;;;;;;7285343;19;20211;-80
2023/11/24 05:25:43;;;;;;;20.07;3.20;;;10.10;99.90;;;;;;7286989;19;20188;-81
2023/11/24 05:28:09;;;;;;;23.57;3.30;;;10.10;99.90;;;;;;7285995;19;20175;-81
2023/11/24 05:30:35;;;;;;;22.63;3.50;;;10.10;99.90;;;;;;7298824;19;20269;-80
2023/11/24 05:33:01;;;;;;;22.73;2.87;;;10.10;99.90;;;;;;7303659;19;20196;-82
2023/11/24 05:35:27;;;;;;;22.43;3.50;;;10.00;99.90;;;;;;7286019;19;20195;-81
2023/11/24 05:37:53;;;;;;;20.10;3.03;;;10.00;99.90;;;;;;7286759;19;20191;-81
2023/11/24 05:40:19;;;;;;;25.50;3.47;;;10.00;99.90;;;;;;7286607;19;20272;-81
2023/11/24 05:42:45;;;;;;;27.40;3.60;;;9.90;99.90;;;;;;7287486;19;20510;-81
2023/11/24 05:45:12;;;;;;;22.03;3.53;;;9.70;99.90;;;;;;7285993;19;20260;-81
2023/11/24 05:47:38;;;;;;;21.63;3.63;;;9.70;99.90;;;;;;7285389;19;20186;-80
2023/11/24 05:50:07;;;;;;;24.13;3.60;;;9.70;99.90;;;;;;7307764;19;20195;-81
2023/11/24 05:52:34;;;;;;;22.90;3.80;;;9.70;99.90;;;;;;7287075;19;20774;-81
2023/11/24 05:55:03;;;;;;;22.47;3.53;;;9.70;99.90;;;;;;7285665;19;20190;-81
2023/11/24 05:57:31;;;;;;;22.63;3.57;;;9.60;99.90;;;;;;7285476;19;20646;-81
2023/11/24 05:59:57;;;;;;;22.80;2.97;;;9.60;99.90;;;;;;7285074;19;20194;-80
2023/11/24 06:02:23;;;;;;;26.20;3.60;;;9.60;99.90;;;;;;7284664;19;20196;-82
2023/11/24 06:04:49;;;;;;;32.30;4.33;;;9.50;99.90;;;;;;7286067;19;20192;-81
2023/11/24 06:07:15;;;;;;;22.40;3.60;;;9.40;99.90;;;;;;7285899;19;20556;-80
2023/11/24 06:09:42;;;;;;;24.37;3.10;;;9.30;99.90;;;;;;7284516;19;20212;-81
2023/11/24 06:12:09;;;;;;;21.03;3.60;;;9.20;99.90;;;;;;7285130;19;20883;-81
2023/11/24 06:14:35;;;;;;;23.47;3.30;;;9.10;99.90;;;;;;7302910;19;20241;-79
2023/11/24 06:17:02;;;;;;;27.07;3.53;;;9.10;99.90;;;;;;7301170;19;20181;-81
2023/11/24 06:19:28;;;;;;;27.63;3.67;;;9.00;99.90;;;;;;7285542;19;20215;-81
2023/11/24 06:21:54;;;;;;;26.73;3.07;;;9.00;99.90;;;;;;7288944;19;22021;-82
2023/11/24 06:24:20;;;;;;;26.07;3.47;;;9.00;99.90;;;;;;7203428;19;20497;-82
2023/11/24 06:26:46;;;;;;;29.53;3.70;;;8.90;99.90;;;;;;7285033;19;20219;-85
2023/11/24 06:29:12;;;;;;;24.40;3.60;;;8.90;99.90;;;;;;7285402;19;20185;-81
2023/11/24 06:31:37;;;;;;;29.33;3.80;;;8.80;99.90;;;;;;7285329;19;20193;-84
2023/11/24 06:34:03;;;;;;;26.83;4.53;;;8.80;99.90;;;;;;7305175;19;20177;-82
2023/11/24 06:36:29;;;;;;;24.00;3.43;;;8.80;99.90;;;;;;7285027;19;20181;-81
2023/11/24 06:38:55;;;;;;;23.97;3.17;;;8.90;99.90;;;;;;7285343;19;20744;-82
2023/11/24 06:41:20;;;;;;;25.77;3.20;;;8.80;99.90;;;;;;7286059;19;20636;-81
2023/11/24 06:43:46;;;;;;;23.97;3.40;;;8.70;99.90;;;;;;7284444;19;20192;-81
2023/11/24 06:46:12;;;;;;;18.30;3.43;;;8.80;99.90;;;;;;7283995;19;20257;-82
2023/11/24 06:48:38;;;;;;;19.43;3.37;;;8.80;99.90;;;;;;7284126;19;20210;-81
2023/11/24 06:51:05;;;;;;;24.53;3.20;;;8.80;99.90;;;;;;7303950;19;20643;-82
2023/11/24 06:53:31;;;;;;;27.40;3.93;;;8.70;99.90;;;;;;7285664;19;20193;-82
2023/11/24 06:55:58;;;;;;;22.23;3.20;;;8.70;99.90;;;;;;7286826;19;20265;-81
2023/11/24 06:58:26;;;;;;;22.00;3.63;;;8.70;99.90;;;;;;7284169;19;20249;-82
2023/11/24 07:00:52;;;;;;;26.37;3.77;;;8.70;99.90;;;;;;7284405;19;20268;-81
2023/11/24 07:03:19;;;;;;;21.40;3.23;;;8.70;99.90;;;;;;7283188;19;20239;-80
2023/11/24 07:05:46;;;;;;;31.63;3.80;;;8.70;99.90;;;;;;7283205;19;20181;-81
2023/11/24 07:08:16;;;;;;;22.13;3.23;;;8.70;99.90;;;;;;7281440;19;20185;-81
2023/11/24 07:10:42;;;;;;;24.60;3.40;;;8.60;99.90;;;;;;7281002;19;20182;-83
2023/11/24 07:13:08;;;;;;;23.77;3.40;;;8.50;99.90;;;;;;7282862;19;20188;-82
2023/11/24 07:15:34;;;;;;;24.77;3.40;;;8.50;99.90;;;;;;7303991;19;20553;-82
2023/11/24 07:18:00;;;;;;;22.87;3.90;;;8.50;99.90;;;;;;7284786;19;20192;-82
2023/11/24 07:20:26;;;;;;;19.43;3.47;;;8.50;99.90;;;;;;7281527;19;20295;-82
2023/11/24 07:22:51;;;;;;;25.40;3.30;;;8.50;99.90;;;;;;7283835;19;20254;-82
2023/11/24 07:25:18;;;;;;;24.53;3.47;;;8.60;99.90;;;;;;7281268;19;20528;-82
2023/11/24 07:27:44;;;;;;;26.87;3.47;;;8.60;99.90;;;;;;7281518;19;20184;-82
2023/11/24 07:30:11;;;;;;;24.47;3.63;;;8.80;99.90;;;;;;7282964;19;20194;-82
2023/11/24 07:32:39;;;;;;;19.90;3.37;;;8.90;99.90;;;;;;7282162;19;20192;-82
2023/11/24 07:35:05;;;;;;;20.77;3.03;;;9.00;99.90;;;;;;7297026;19;20197;-81
2023/11/24 07:37:31;;;;;;;21.07;3.07;;;9.10;99.90;;;;;;7301534;19;20223;-81
2023/11/24 07:39:57;;;;;;;23.53;2.70;;;9.20;99.90;;;;;;7283337;19;20256;-82
2023/11/24 07:42:23;;;;;;;23.07;3.63;;;9.20;99.90;;;;;;7280667;19;20193;-82
2023/11/24 07:44:49;;;;;;;21.20;3.30;;;9.20;99.90;;;;;;7281256;19;20953;-82
2023/11/24 07:47:18;;;;;;;21.97;3.00;;;9.10;99.90;;;;;;7291513;19;20238;-82
2023/11/24 07:49:44;;;;;;;15.63;2.60;;;9.00;99.90;;;;;;7289532;19;20249;-82
2023/11/24 07:52:11;;;;;;;17.20;3.00;;;8.90;99.90;;;;;;7288199;19;20204;-82
2023/11/24 07:54:43;;;;;;;21.97;3.13;;;8.90;99.90;;;;;;7289451;19;20181;-82
2023/11/24 07:57:09;;;;;;;16.40;2.87;;;9.00;99.90;;;;;;7290361;19;20189;-82
2023/11/24 07:59:35;;;;;;;23.17;3.37;;;9.00;99.90;;;;;;7301580;19;20200;-82
2023/11/24 08:02:02;;;;;;;25.00;3.30;;;9.10;99.90;;;;;;7306779;19;20587;-82
2023/11/24 08:04:28;;;;;;;22.23;3.30;;;9.10;99.90;;;;;;7290790;19;20196;-82
2023/11/24 08:06:54;;;;;;;22.83;2.90;;;9.10;99.90;;;;;;7289607;19;20194;-82
2023/11/24 08:09:20;;;;;;;19.17;2.77;;;9.20;99.90;;;;;;7289906;19;20193;-82
2023/11/24 08:11:46;;;;;;;19.70;3.27;;;9.20;99.90;;;;;;7288619;19;20184;-82
2023/11/24 08:14:12;;;;;;;25.87;3.50;;;9.20;99.90;;;;;;7287789;19;20176;-82
2023/11/24 08:16:38;;;;;;;19.20;2.60;;;9.20;99.90;;;;;;7287945;19;20254;-82
2023/11/24 08:19:04;;;;;;;20.70;3.17;;;9.30;99.90;;;;;;7311266;19;20579;-82
2023/11/24 08:21:30;;;;;;;24.23;3.43;;;9.30;99.90;;;;;;7287406;19;20621;-82
2023/11/24 08:23:56;;;;;;;19.50;2.80;;;9.50;99.90;;;;;;7286384;19;20182;-82
2023/11/24 08:26:22;;;;;;;27.47;3.77;;;9.60;99.90;;;;;;7286780;19;20257;-83
2023/11/24 08:28:48;;;;;;;14.83;2.43;;;9.70;99.90;;;;;;7288368;19;20191;-82
2023/11/24 08:31:19;;;;;;;19.67;2.70;;;9.80;99.90;;;;;;7288785;19;20214;-82
2023/11/24 08:33:45;;;;;;;21.00;3.17;;;9.90;99.90;;;;;;7287905;19;20249;-82
2023/11/24 08:36:14;;;;;;;15.33;2.73;;;10.10;99.90;;;;;;7288288;19;20196;-82
2023/11/24 08:38:40;;;;;;;12.43;2.17;;;10.10;99.90;;;;;;7287179;19;20189;-83
2023/11/24 08:41:13;;;;;;;23.03;2.80;;;10.10;99.90;;;;;;7293286;19;20185;-82
2023/11/24 08:43:40;;;;;;;19.53;2.63;;;10.20;99.90;;;;;;7288759;19;20186;-82
2023/11/24 08:46:08;;;;;;;18.53;2.30;;;10.30;99.90;;;;;;7298806;19;20665;-82
2023/11/24 08:48:38;;;;;;;14.70;2.70;;;10.20;99.90;;;;;;7308589;19;20186;-82
2023/11/24 08:51:05;;;;;;;14.70;2.23;;;10.30;99.90;;;;;;7289123;19;20281;-82
2023/11/24 08:53:33;;;;;;;15.70;2.20;;;10.40;99.90;;;;;;7289725;19;20193;-83
2023/11/24 08:55:59;;;;;;;11.20;2.10;;;10.40;99.90;;;;;;7286169;19;20260;-82
2023/11/24 08:58:26;;;;;;;16.87;2.37;;;10.50;99.90;;;;;;7286505;19;20567;-82
2023/11/24 09:00:53;;;;;;;13.23;2.10;;;10.50;99.90;;;;;;7287635;19;20207;-83
2023/11/24 09:03:19;;;;;;;13.60;2.27;;;10.50;99.90;;;;;;7286886;19;20194;-82
2023/11/24 09:05:45;;;;;;;13.63;2.47;;;10.40;99.90;;;;;;7286571;19;20181;-82
2023/11/24 09:08:12;;;;;;;15.93;2.10;;;10.30;99.90;;;;;;7285019;19;20206;-82
2023/11/24 09:10:37;;;;;;;20.07;2.07;;;10.10;99.90;;;;;;7286148;19;20203;-82
2023/11/24 09:13:03;;;;;;;13.57;2.07;;;10.20;99.90;;;;;;7310844;19;20178;-84
2023/11/24 09:15:29;;;;;;;16.17;2.63;;;10.30;99.90;;;;;;7286988;19;20186;-82
2023/11/24 09:17:54;;;;;;;15.93;2.53;;;10.40;99.90;;;;;;7288099;19;20187;-82
2023/11/24 09:20:20;;;;;;;13.73;2.20;;;10.60;99.90;;;;;;7286951;19;20657;-82
2023/11/24 09:22:46;;;;;;;15.60;2.20;;;10.70;99.90;;;;;;7287719;19;20207;-82
2023/11/24 09:25:14;;;;;;;11.83;1.67;;;10.60;99.90;;;;;;7286152;19;20187;-82
2023/11/24 09:27:40;;;;;;;12.33;2.00;;;10.50;99.90;;;;;;7286211;19;20186;-82
2023/11/24 09:30:08;;;;;;;12.43;2.07;;;10.50;99.90;;;;;;7295659;19;20201;-83
2023/11/24 09:32:39;;;;;;;14.80;1.73;;;10.50;99.90;;;;;;7307823;19;20200;-82
2023/11/24 09:35:07;;;;;;;12.43;1.60;;;10.40;99.90;;;;;;7273826;19;20189;-81
2023/11/24 09:37:33;;;;;;;10.50;1.73;;;10.20;99.90;;;;;;7308522;19;20750;-82
2023/11/24 09:40:00;;;;;;;8.53;1.40;;;10.20;99.90;;;;;;7285757;19;20307;-82
2023/11/24 09:42:39;;;;;;;11.90;1.60;;;10.30;99.90;;;;;;7287451;19;20229;-82
2023/11/24 09:45:13;;;;;;;13.93;1.80;;;10.40;99.90;;;;;;7285689;19;20207;-82
2023/11/24 09:47:41;;;;;;;9.47;1.60;;;10.30;99.90;;;;;;7262953;19;20192;-82
2023/11/24 09:50:09;;;;;;;8.80;1.60;;;10.20;99.90;;;;;;7288891;19;20202;-81
2023/11/24 09:52:38;;;;;;;14.47;2.30;;;10.20;99.90;;;;;;7306720;19;20268;-81
2023/11/24 09:55:05;;;;;;;13.67;1.57;;;10.20;99.90;;;;;;7308343;19;20180;-82
2023/11/24 09:57:30;;;;;;;13.07;1.70;;;10.00;99.90;;;;;;7286342;19;20677;-82
2023/11/24 09:59:56;;;;;;;14.57;1.70;;;10.00;99.90;;;;;;7285273;19;20187;-82
2023/11/24 10:02:26;;;;;;;15.30;2.07;;;10.10;99.90;;;;;;7283756;19;20188;-82
2023/11/24 10:04:52;;;;;;;7.70;2.20;;;10.00;99.90;;;;;;7285619;19;20268;-81
2023/11/24 10:07:22;;;;;;;9.57;1.70;;;9.70;99.90;;;;;;7284965;19;20189;-82
2023/11/24 10:09:50;;;;;;;11.17;1.90;;;9.10;99.90;;;;;;7283936;19;20681;-82
2023/11/24 10:12:19;;;;;;;14.10;2.10;;;8.90;99.90;;;;;;7286535;19;20669;-81
2023/11/24 10:14:46;;;;;;;15.13;2.10;;;8.70;99.90;;;;;;7284117;19;20181;-82
2023/11/24 10:17:12;;;;;;;10.97;1.80;;;8.70;99.90;;;;;;7286008;19;20722;-82
2023/11/24 10:19:38;;;;;;;13.17;2.13;;;8.50;99.90;;;;;;7285768;19;20189;-86
2023/11/24 10:22:04;;;;;;;13.33;2.07;;;8.40;99.90;;;;;;7308911;19;20300;-86
2023/11/24 10:24:37;;;;;;;13.57;2.20;;;8.30;99.90;;;;;;7287502;19;20218;-86
2023/11/24 10:27:22;;;;;;;11.47;2.37;;;8.30;99.90;;;;;;7287112;19;20193;-86
2023/11/24 10:29:50;;;;;;;13.60;2.63;;;8.30;99.90;;;;;;7184474;19;2004457;-83
2023/11/24 10:32:16;;;;;;;14.07;2.70;;;8.40;99.90;;;;;;7284254;19;20688;-83
2023/11/24 10:34:43;;;;;;;13.53;2.23;;;8.60;99.90;;;;;;7286753;19;20281;-82
2023/11/24 10:37:15;;;;;;;15.80;2.63;;;8.70;99.90;;;;;;7286584;19;20301;-82
2023/11/24 10:39:45;;;;;;;11.33;2.03;;;8.90;99.90;;;;;;7289178;19;20285;-83
2023/11/24 10:42:11;;;;;;;13.83;2.73;;;8.90;99.90;;;;;;7284731;19;20193;-82
2023/11/24 10:44:41;;;;;;;13.20;2.90;;;8.90;99.90;;;;;;7285568;19;20210;-82
2023/11/24 10:47:09;;;;;;;15.50;2.00;;;8.80;99.90;;;;;;7283998;19;20188;-83
2023/11/24 10:49:44;;;;;;;11.63;1.87;;;8.80;99.90;;;;;;7303034;19;20192;-82
2023/11/24 10:52:27;;;;;;;10.10;2.17;;;8.80;99.90;;;;;;7286080;19;20755;-83
2023/11/24 10:55:14;;;;;;;26.23;8.93;;;8.70;99.90;;;;;;7284911;19;20185;-83
2023/11/24 10:57:43;;;;;;;13.73;3.40;;;8.80;99.90;;;;;;7263630;19;20195;-83
2023/11/24 11:00:10;;;;;;;13.40;3.53;;;8.80;99.90;;;;;;7284417;19;20666;-83
2023/11/24 11:02:40;;;;;;;7.87;1.43;;;8.60;99.90;;;;;;7301810;19;20189;-82
2023/11/24 11:05:28;;;;;;;4.23;0.80;;;8.30;99.90;;;;;;7299341;19;20177;-82
2023/11/24 11:08:06;;;;;;;4.30;0.70;;;7.60;99.90;;;;;;7285258;19;20191;-84
2023/11/24 11:10:45;;;;;;;7.37;0.87;;;7.30;99.90;;;;;;7284441;19;20185;-84
2023/11/24 11:13:12;;;;;;;3.83;0.70;;;7.10;99.90;;;;;;7182428;19;2004771;-83
2023/11/24 11:15:38;;;;;;;2.20;0.50;;;7.10;99.90;;;;;;7283014;19;20209;-84
2023/11/24 11:18:15;;;;;;;2.63;0.40;;;7.00;99.90;;;;;;7306663;19;20655;-84
2023/11/24 11:20:44;;;;;;;2.50;0.60;;;7.10;99.90;;;;;;7180089;19;2004580;-82
2023/11/24 11:23:10;;;;;;;5.90;1.10;;;7.40;99.90;;;;;;7283975;19;20668;-82
2023/11/24 11:25:36;;;;;;;2.77;0.90;;;7.60;99.90;;;;;;7299998;19;20570;-82
2023/11/24 11:28:17;;;;;;;4.20;0.87;;;7.90;99.90;;;;;;7300431;19;20195;-83
2023/11/24 11:30:46;;;;;;;4.77;1.70;;;7.90;99.90;;;;;;7183140;19;2004350;-83
2023/11/24 11:33:14;;;;;;;5.30;1.80;;;8.20;99.90;;;;;;7282503;19;20193;-83
2023/11/24 11:35:46;;;;;;;9.50;3.53;;;8.50;99.90;;;;;;7283224;19;20190;-83
2023/11/24 11:38:33;;;;;;;6.30;1.50;;;8.70;99.90;;;;;;7282107;19;20689;-83
2023/11/24 11:41:00;;;;;;;5.03;1.80;;;8.90;99.90;;;;;;7281930;19;20627;-83
2023/11/24 11:43:27;;;;;;;7.63;3.00;;;9.00;99.90;;;;;;7284872;19;20251;-83
2023/11/24 11:45:56;;;;;;;43.33;3.97;;;9.00;99.90;;;;;;7279235;19;20193;-83
2023/11/24 11:48:22;;;;;;;7.53;1.17;;;8.90;99.90;;;;;;7282958;19;20634;-83
2023/11/24 11:50:57;;;;;;;5.97;1.40;;;8.80;99.90;;;;;;7283454;19;20197;-82
2023/11/24 11:53:28;;;;;;;4.73;1.30;;;8.60;99.90;;;;;;7281054;19;20188;-83
2023/11/24 11:55:55;;;;;;;6.93;1.00;;;8.50;99.90;;;;;;7285535;19;20672;-83
2023/11/24 11:58:24;;;;;;;4.17;0.73;;;8.30;99.90;;;;;;7281772;19;20244;-83
2023/11/24 12:00:50;;;;;;;6.63;1.23;;;8.20;99.90;;;;;;7282921;19;20277;-83
2023/11/24 12:03:20;;;;;;;7.50;2.00;;;8.10;99.90;;;;;;7282728;19;20185;-82
2023/11/24 12:05:47;;;;;;;5.90;1.40;;;8.10;99.90;;;;;;7284032;19;20184;-83
2023/11/24 12:08:19;;;;;;;3.57;0.90;;;8.10;99.90;;;;;;7284450;19;20196;-83
2023/11/24 12:10:45;;;;;;;5.00;0.90;;;8.10;99.90;;;;;;7282331;19;20574;-82
2023/11/24 12:13:14;;;;;;;4.00;1.20;;;7.80;99.90;;;;;;7281585;19;20193;-83
2023/11/24 12:15:42;;;;;;;3.43;0.90;;;7.70;99.90;;;;;;7282663;19;20648;-83
2023/11/24 12:18:17;;;;;;;5.23;0.70;;;7.70;99.90;;;;;;7280843;19;20213;-82
2023/11/24 12:20:47;;;;;;;2.97;0.90;;;7.80;99.90;;;;;;7281387;19;20621;-82
2023/11/24 12:23:14;;;;;;;3.90;1.00;;;8.00;99.90;;;;;;7282142;19;20255;-82
2023/11/24 12:25:42;;;;;;;3.60;1.00;;;8.20;99.90;;;;;;7282609;19;20191;-82
2023/11/24 12:28:09;;;;;;;3.70;1.13;;;8.40;99.90;;;;;;7282409;19;20589;-82
2023/11/24 12:30:41;;;;;;;4.57;0.93;;;8.40;99.90;;;;;;7303921;19;20188;-83
2023/11/24 12:33:15;;;;;;;2.80;1.00;;;8.50;99.90;;;;;;7268883;19;20184;-83
2023/11/24 12:35:47;;;;;;;4.73;1.17;;;8.70;99.90;;;;;;7289521;19;20257;-82
2023/11/24 12:38:14;;;;;;;4.93;1.00;;;8.70;99.90;;;;;;7284614;19;20253;-82
2023/11/24 12:40:42;;;;;;;6.53;1.83;;;8.80;99.90;;;;;;7286946;19;20192;-82
2023/11/24 12:43:15;;;;;;;11.50;3.00;;;8.90;99.90;;;;;;7286675;19;20180;-82